sensor_id;sensor_type;location;lat;lon;timestamp;pressure;altitude;pressure_sealevel;temperature;humidity
40285;BME280;25997;50.214;19.354;2023-05-23T00:02:26;97550.81;;;11.74;46.92
40285;BME280;25997;50.214;19.354;2023-05-23T00:05:47;97547.28;;;11.72;47.06
40285;BME280;25997;50.214;19.354;2023-05-23T00:09:08;97535.78;;;11.64;47.29
40285;BME280;25997;50.214;19.354;2023-05-23T00:12:30;97538.28;;;11.55;47.54
40285;BME280;25997;50.214;19.354;2023-05-23T00:15:52;97535.59;;;11.52;47.52
40285;BME280;25997;50.214;19.354;2023-05-23T00:19:13;97532.91;;;11.46;47.78
40285;BME280;25997;50.214;19.354;2023-05-23T00:22:34;97531.16;;;11.48;47.66
40285;BME280;25997;50.214;19.354;2023-05-23T00:26:00;97529.38;;;11.44;47.97
40285;BME280;25997;50.214;19.354;2023-05-23T00:29:04;97532.91;;;11.49;47.72
40285;BME280;25997;50.214;19.354;2023-05-23T00:32:06;97523.41;;;11.57;47.32
40285;BME280;25997;50.214;19.354;2023-05-23T00:35:09;97520.84;;;11.62;46.99
40285;BME280;25997;50.214;19.354;2023-05-23T00:38:11;97521.75;;;11.65;46.98
40285;BME280;25997;50.214;19.354;2023-05-23T00:41:14;97520.94;;;11.69;47.00
40285;BME280;25997;50.214;19.354;2023-05-23T00:44:19;97528.84;;;11.71;46.84
40285;BME280;25997;50.214;19.354;2023-05-23T00:47:22;97530.59;;;11.72;46.73
40285;BME280;25997;50.214;19.354;2023-05-23T00:50:25;97527.06;;;11.70;46.77
40285;BME280;25997;50.214;19.354;2023-05-23T00:53:48;97527.00;;;11.65;46.88
40285;BME280;25997;50.214;19.354;2023-05-23T00:57:10;97520.84;;;11.63;46.83
40285;BME280;25997;50.214;19.354;2023-05-23T01:00:32;97519.06;;;11.62;46.99
40285;BME280;25997;50.214;19.354;2023-05-23T01:03:54;97525.22;;;11.63;46.93
40285;BME280;25997;50.214;19.354;2023-05-23T01:07:17;97516.47;;;11.64;47.11
40285;BME280;25997;50.214;19.354;2023-05-23T01:10:23;97525.22;;;11.63;47.12
40285;BME280;25997;50.214;19.354;2023-05-23T01:13:33;97531.38;;;11.65;47.16
40285;BME280;25997;50.214;19.354;2023-05-23T01:16:46;97523.50;;;11.65;47.08
40285;BME280;25997;50.214;19.354;2023-05-23T01:19:57;97525.22;;;11.63;47.22
40285;BME280;25997;50.214;19.354;2023-05-23T01:23:12;97520.84;;;11.63;47.62
40285;BME280;25997;50.214;19.354;2023-05-23T01:26:30;97527.84;;;11.63;47.47
40285;BME280;25997;50.214;19.354;2023-05-23T01:29:56;97520.81;;;11.60;47.42
40285;BME280;25997;50.214;19.354;2023-05-23T01:33:19;97522.50;;;11.55;47.37
40285;BME280;25997;50.214;19.354;2023-05-23T01:36:42;97519.84;;;11.54;47.50
40285;BME280;25997;50.214;19.354;2023-05-23T01:40:05;97516.34;;;11.55;47.53
40285;BME280;25997;50.214;19.354;2023-05-23T01:43:26;97517.25;;;11.57;47.45
40285;BME280;25997;50.214;19.354;2023-05-23T01:46:31;97515.53;;;11.59;47.49
40285;BME280;25997;50.214;19.354;2023-05-23T01:49:36;97512.91;;;11.59;47.48
40285;BME280;25997;50.214;19.354;2023-05-23T01:52:39;97518.16;;;11.59;47.46
40285;BME280;25997;50.214;19.354;2023-05-23T01:55:42;97514.63;;;11.58;47.46
40285;BME280;25997;50.214;19.354;2023-05-23T01:58:45;97516.41;;;11.58;47.68
40285;BME280;25997;50.214;19.354;2023-05-23T02:01:49;97519.84;;;11.54;47.61
40285;BME280;25997;50.214;19.354;2023-05-23T02:04:53;97520.72;;;11.56;47.56
40285;BME280;25997;50.214;19.354;2023-05-23T02:07:58;97523.31;;;11.51;47.57
40285;BME280;25997;50.214;19.354;2023-05-23T02:11:19;97516.97;;;11.35;47.67
40285;BME280;25997;50.214;19.354;2023-05-23T02:14:40;97524.66;;;11.22;47.99
40285;BME280;25997;50.214;19.354;2023-05-23T02:18:03;97519.41;;;11.23;47.99
40285;BME280;25997;50.214;19.354;2023-05-23T02:21:25;97521.16;;;11.23;48.15
40285;BME280;25997;50.214;19.354;2023-05-23T02:24:46;97519.50;;;11.29;47.92
40285;BME280;25997;50.214;19.354;2023-05-23T02:28:07;97524.75;;;11.29;47.74
40285;BME280;25997;50.214;19.354;2023-05-23T02:31:30;97527.25;;;11.20;48.02
40285;BME280;25997;50.214;19.354;2023-05-23T02:34:53;97528.94;;;11.15;48.19
40285;BME280;25997;50.214;19.354;2023-05-23T02:38:14;97511.41;;;11.16;48.18
40285;BME280;25997;50.214;19.354;2023-05-23T02:41:36;97520.09;;;11.10;48.42
40285;BME280;25997;50.214;19.354;2023-05-23T02:44:58;97521.06;;;11.18;48.43
40285;BME280;25997;50.214;19.354;2023-05-23T02:48:20;97515.19;;;11.33;48.16
40285;BME280;25997;50.214;19.354;2023-05-23T02:51:24;97514.44;;;11.44;47.99
40285;BME280;25997;50.214;19.354;2023-05-23T02:54:27;97504.00;;;11.49;47.96
40285;BME280;25997;50.214;19.354;2023-05-23T02:57:29;97497.75;;;11.39;48.28
40285;BME280;25997;50.214;19.354;2023-05-23T03:00:32;97509.03;;;11.31;48.70
40285;BME280;25997;50.214;19.354;2023-05-23T03:03:34;97502.91;;;11.33;48.70
40285;BME280;25997;50.214;19.354;2023-05-23T03:06:38;97497.63;;;11.30;48.73
40285;BME280;25997;50.214;19.354;2023-05-23T03:09:42;97501.00;;;11.23;48.85
40285;BME280;25997;50.214;19.354;2023-05-23T03:12:45;97498.34;;;11.20;49.00
40285;BME280;25997;50.214;19.354;2023-05-23T03:15:49;97493.06;;;11.19;48.89
40285;BME280;25997;50.214;19.354;2023-05-23T03:18:51;97495.75;;;11.23;48.89
40285;BME280;25997;50.214;19.354;2023-05-23T03:21:55;97489.75;;;11.30;48.92
40285;BME280;25997;50.214;19.354;2023-05-23T03:24:58;97489.00;;;11.40;48.89
40285;BME280;25997;50.214;19.354;2023-05-23T03:28:01;97495.31;;;11.53;48.39
40285;BME280;25997;50.214;19.354;2023-05-23T03:31:04;97491.03;;;11.63;48.29
40285;BME280;25997;50.214;19.354;2023-05-23T03:34:06;97498.13;;;11.68;48.42
40285;BME280;25997;50.214;19.354;2023-05-23T03:37:11;97492.94;;;11.76;48.35
40285;BME280;25997;50.214;19.354;2023-05-23T03:40:14;97488.66;;;11.82;48.25
40285;BME280;25997;50.214;19.354;2023-05-23T03:43:16;97498.38;;;11.89;48.19
40285;BME280;25997;50.214;19.354;2023-05-23T03:46:19;97496.63;;;11.88;48.08
40285;BME280;25997;50.214;19.354;2023-05-23T03:49:21;97499.28;;;11.91;48.23
40285;BME280;25997;50.214;19.354;2023-05-23T03:52:26;97495.00;;;11.99;48.20
40285;BME280;25997;50.214;19.354;2023-05-23T03:55:30;97493.34;;;12.09;48.02
40285;BME280;25997;50.214;19.354;2023-05-23T03:58:33;97496.94;;;12.11;48.27
40285;BME280;25997;50.214;19.354;2023-05-23T04:01:41;97489.09;;;12.17;48.43
40285;BME280;25997;50.214;19.354;2023-05-23T04:04:44;97489.16;;;12.25;48.54
40285;BME280;25997;50.214;19.354;2023-05-23T04:07:48;97494.44;;;12.25;48.65
40285;BME280;25997;50.214;19.354;2023-05-23T04:10:52;97493.56;;;12.24;48.90
40285;BME280;25997;50.214;19.354;2023-05-23T04:13:56;97487.47;;;12.31;48.74
40285;BME280;25997;50.214;19.354;2023-05-23T04:17:17;97490.09;;;12.28;48.62
40285;BME280;25997;50.214;19.354;2023-05-23T04:20:38;97489.19;;;12.26;48.80
40285;BME280;25997;50.214;19.354;2023-05-23T04:24:01;97492.75;;;12.31;48.74
40285;BME280;25997;50.214;19.354;2023-05-23T04:27:22;97490.16;;;12.36;48.75
40285;BME280;25997;50.214;19.354;2023-05-23T04:30:44;97486.75;;;12.44;48.51
40285;BME280;25997;50.214;19.354;2023-05-23T04:34:10;97485.06;;;12.52;48.50
40285;BME280;25997;50.214;19.354;2023-05-23T04:37:32;97480.81;;;12.69;48.40
40285;BME280;25997;50.214;19.354;2023-05-23T04:40:56;97478.31;;;12.81;48.20
40285;BME280;25997;50.214;19.354;2023-05-23T04:44:23;97483.69;;;12.95;48.20
40285;BME280;25997;50.214;19.354;2023-05-23T04:48:07;97479.41;;;13.09;47.98
40285;BME280;25997;50.214;19.354;2023-05-23T04:51:34;97479.53;;;13.26;47.88
40285;BME280;25997;50.214;19.354;2023-05-23T04:55:07;97466.44;;;13.39;47.67
40285;BME280;25997;50.214;19.354;2023-05-23T04:58:30;97477.06;;;13.53;47.51
40285;BME280;25997;50.214;19.354;2023-05-23T05:01:57;97478.88;;;13.68;47.39
40285;BME280;25997;50.214;19.354;2023-05-23T05:05:18;97464.84;;;13.81;47.28
40285;BME280;25997;50.214;19.354;2023-05-23T05:08:41;97470.22;;;13.96;47.15
40285;BME280;25997;50.214;19.354;2023-05-23T05:12:03;97472.03;;;14.10;47.12
40285;BME280;25997;50.214;19.354;2023-05-23T05:15:25;97474.69;;;14.22;47.00
40285;BME280;25997;50.214;19.354;2023-05-23T05:18:49;97471.22;;;14.31;46.87
40285;BME280;25997;50.214;19.354;2023-05-23T05:22:12;97474.75;;;14.39;47.06
40285;BME280;25997;50.214;19.354;2023-05-23T05:25:34;97473.88;;;14.49;46.96
40285;BME280;25997;50.214;19.354;2023-05-23T05:28:57;97473.00;;;14.61;46.78
40285;BME280;25997;50.214;19.354;2023-05-23T05:32:01;97463.34;;;14.75;46.70
40285;BME280;25997;50.214;19.354;2023-05-23T05:35:03;97468.63;;;14.82;46.67
40285;BME280;25997;50.214;19.354;2023-05-23T05:38:09;97467.78;;;14.95;46.70
40285;BME280;25997;50.214;19.354;2023-05-23T05:41:13;97469.50;;;15.15;46.34
40285;BME280;25997;50.214;19.354;2023-05-23T05:44:23;97461.56;;;15.28;46.47
40285;BME280;25997;50.214;19.354;2023-05-23T05:47:28;97469.41;;;15.54;46.14
40285;BME280;25997;50.214;19.354;2023-05-23T05:50:49;97470.28;;;15.72;46.36
40285;BME280;25997;50.214;19.354;2023-05-23T05:54:11;97469.34;;;15.83;45.84
40285;BME280;25997;50.214;19.354;2023-05-23T05:57:32;97466.66;;;15.96;45.53
40285;BME280;25997;50.214;19.354;2023-05-23T06:00:54;97462.13;;;16.16;45.31
40285;BME280;25997;50.214;19.354;2023-05-23T06:04:16;97462.88;;;16.38;44.87
40285;BME280;25997;50.214;19.354;2023-05-23T06:07:37;97464.50;;;16.65;44.48
40285;BME280;25997;50.214;19.354;2023-05-23T06:10:40;97459.16;;;16.71;43.82
40285;BME280;25997;50.214;19.354;2023-05-23T06:13:42;97460.81;;;16.82;43.76
40285;BME280;25997;50.214;19.354;2023-05-23T06:16:45;97454.44;;;17.04;43.78
40285;BME280;25997;50.214;19.354;2023-05-23T06:19:49;97449.00;;;17.18;43.64
40285;BME280;25997;50.214;19.354;2023-05-23T06:22:51;97447.13;;;17.34;43.37
40285;BME280;25997;50.214;19.354;2023-05-23T06:25:54;97447.84;;;17.48;43.27
40285;BME280;25997;50.214;19.354;2023-05-23T06:29:15;97445.91;;;17.63;42.95
40285;BME280;25997;50.214;19.354;2023-05-23T06:32:36;97439.56;;;17.73;42.59
40285;BME280;25997;50.214;19.354;2023-05-23T06:35:59;97441.31;;;17.77;42.42
40285;BME280;25997;50.214;19.354;2023-05-23T06:39:19;97446.53;;;17.85;42.11
40285;BME280;25997;50.214;19.354;2023-05-23T06:42:40;97442.91;;;17.93;42.12
40285;BME280;25997;50.214;19.354;2023-05-23T06:46:03;97439.34;;;17.98;42.11
40285;BME280;25997;50.214;19.354;2023-05-23T06:49:06;97440.88;;;18.15;42.17
40285;BME280;25997;50.214;19.354;2023-05-23T06:52:11;97442.53;;;18.21;41.48
40285;BME280;25997;50.214;19.354;2023-05-23T06:55:14;97435.22;;;18.36;41.59
40285;BME280;25997;50.214;19.354;2023-05-23T06:58:21;97431.41;;;18.54;41.34
40285;BME280;25997;50.214;19.354;2023-05-23T07:01:29;97430.50;;;18.56;40.94
40285;BME280;25997;50.214;19.354;2023-05-23T07:04:32;97435.75;;;18.61;41.04
40285;BME280;25997;50.214;19.354;2023-05-23T07:07:42;97433.78;;;18.74;40.89
40285;BME280;25997;50.214;19.354;2023-05-23T07:10:44;97429.97;;;18.90;40.79
40285;BME280;25997;50.214;19.354;2023-05-23T07:14:04;97424.34;;;19.08;40.77
40285;BME280;25997;50.214;19.354;2023-05-23T07:17:14;97431.13;;;19.25;40.61
40285;BME280;25997;50.214;19.354;2023-05-23T07:20:18;97427.97;;;19.51;40.59
40285;BME280;25997;50.214;19.354;2023-05-23T07:23:26;97425.75;;;19.74;40.08
40285;BME280;25997;50.214;19.354;2023-05-23T07:26:30;97425.44;;;19.91;40.08
40285;BME280;25997;50.214;19.354;2023-05-23T07:29:33;97425.97;;;20.08;40.00
40285;BME280;25997;50.214;19.354;2023-05-23T07:32:37;97427.31;;;20.27;39.27
40285;BME280;25997;50.214;19.354;2023-05-23T07:35:43;97422.72;;;20.34;38.77
40285;BME280;25997;50.214;19.354;2023-05-23T07:38:47;97415.59;;;20.34;39.02
40285;BME280;25997;50.214;19.354;2023-05-23T07:41:50;97424.16;;;20.48;38.52
40285;BME280;25997;50.214;19.354;2023-05-23T07:44:53;97423.75;;;20.66;38.48
40285;BME280;25997;50.214;19.354;2023-05-23T07:47:56;97417.22;;;20.78;38.15
40285;BME280;25997;50.214;19.354;2023-05-23T07:50:58;97418.94;;;20.82;38.42
40285;BME280;25997;50.214;19.354;2023-05-23T07:54:02;97417.44;;;21.06;38.52
40285;BME280;25997;50.214;19.354;2023-05-23T07:57:05;97419.63;;;21.24;38.38
40285;BME280;25997;50.214;19.354;2023-05-23T08:00:10;97420.19;;;21.36;37.47
40285;BME280;25997;50.214;19.354;2023-05-23T08:03:16;97410.34;;;21.38;37.12
40285;BME280;25997;50.214;19.354;2023-05-23T08:06:30;97408.56;;;21.39;36.83
40285;BME280;25997;50.214;19.354;2023-05-23T08:09:36;97408.75;;;21.64;37.13
40285;BME280;25997;50.214;19.354;2023-05-23T08:12:41;97410.66;;;21.89;37.17
40285;BME280;25997;50.214;19.354;2023-05-23T08:15:48;97410.78;;;21.86;36.57
40285;BME280;25997;50.214;19.354;2023-05-23T08:18:59;97411.94;;;22.08;36.44
40285;BME280;25997;50.214;19.354;2023-05-23T08:22:02;97400.91;;;22.19;35.70
40285;BME280;25997;50.214;19.354;2023-05-23T08:25:08;97409.16;;;22.11;35.59
40285;BME280;25997;50.214;19.354;2023-05-23T08:28:12;97403.44;;;22.24;35.89
40285;BME280;25997;50.214;19.354;2023-05-23T08:31:26;97407.13;;;22.49;35.41
40285;BME280;25997;50.214;19.354;2023-05-23T08:34:29;97404.22;;;22.55;34.85
40285;BME280;25997;50.214;19.354;2023-05-23T08:37:51;97396.41;;;22.76;35.10
40285;BME280;25997;50.214;19.354;2023-05-23T08:41:19;97409.41;;;22.88;34.49
40285;BME280;25997;50.214;19.354;2023-05-23T08:44:45;97400.09;;;23.26;34.40
40285;BME280;25997;50.214;19.354;2023-05-23T08:48:07;97400.09;;;23.26;33.86
40285;BME280;25997;50.214;19.354;2023-05-23T08:51:35;97401.34;;;23.41;33.53
40285;BME280;25997;50.214;19.354;2023-05-23T08:54:45;97400.97;;;23.51;34.24
40285;BME280;25997;50.214;19.354;2023-05-23T08:57:50;97398.84;;;23.61;34.00
40285;BME280;25997;50.214;19.354;2023-05-23T09:01:03;97400.69;;;23.59;34.30
40285;BME280;25997;50.214;19.354;2023-05-23T09:04:06;97384.50;;;23.62;34.37
40285;BME280;25997;50.214;19.354;2023-05-23T09:07:38;97383.09;;;23.77;33.76
40285;BME280;25997;50.214;19.354;2023-05-23T09:10:41;97388.59;;;23.97;33.54
40285;BME280;25997;50.214;19.354;2023-05-23T09:13:47;97386.50;;;23.82;32.77
40285;BME280;25997;50.214;19.354;2023-05-23T09:17:10;97388.94;;;23.88;33.56
40285;BME280;25997;50.214;19.354;2023-05-23T09:20:17;97381.56;;;24.16;33.24
40285;BME280;25997;50.214;19.354;2023-05-23T09:23:29;97378.16;;;24.12;32.96
40285;BME280;25997;50.214;19.354;2023-05-23T09:26:33;97379.41;;;24.25;32.75
40285;BME280;25997;50.214;19.354;2023-05-23T09:29:40;97381.72;;;24.13;31.80
40285;BME280;25997;50.214;19.354;2023-05-23T09:32:57;97384.22;;;24.17;32.05
40285;BME280;25997;50.214;19.354;2023-05-23T09:36:03;97377.91;;;24.42;32.40
40285;BME280;25997;50.214;19.354;2023-05-23T09:39:05;97382.16;;;24.47;31.54
40285;BME280;25997;50.214;19.354;2023-05-23T09:42:10;97374.16;;;24.67;32.67
40285;BME280;25997;50.214;19.354;2023-05-23T09:45:17;97375.50;;;25.41;32.78
40285;BME280;25997;50.214;19.354;2023-05-23T09:48:27;97376.84;;;25.91;30.95
40285;BME280;25997;50.214;19.354;2023-05-23T09:51:30;97381.31;;;26.29;32.27
40285;BME280;25997;50.214;19.354;2023-05-23T09:54:33;97366.47;;;26.77;31.57
40285;BME280;25997;50.214;19.354;2023-05-23T09:57:39;97376.78;;;26.86;30.21
40285;BME280;25997;50.214;19.354;2023-05-23T10:00:44;97371.94;;;27.11;30.51
40285;BME280;25997;50.214;19.354;2023-05-23T10:03:48;97366.53;;;27.79;30.37
40285;BME280;25997;50.214;19.354;2023-05-23T10:06:55;97377.13;;;28.32;29.71
40285;BME280;25997;50.214;19.354;2023-05-23T10:10:03;97372.50;;;28.02;28.61
40285;BME280;25997;50.214;19.354;2023-05-23T10:13:05;97376.16;;;28.18;29.66
40285;BME280;25997;50.214;19.354;2023-05-23T10:16:15;97371.69;;;28.17;28.07
40285;BME280;25997;50.214;19.354;2023-05-23T10:19:24;97366.22;;;28.49;29.18
40285;BME280;25997;50.214;19.354;2023-05-23T10:22:27;97368.75;;;29.15;29.58
40285;BME280;25997;50.214;19.354;2023-05-23T10:25:29;97366.06;;;29.59;29.23
40285;BME280;25997;50.214;19.354;2023-05-23T10:28:32;97371.19;;;30.21;29.00
40285;BME280;25997;50.214;19.354;2023-05-23T10:31:36;97362.00;;;30.38;27.42
40285;BME280;25997;50.214;19.354;2023-05-23T10:34:43;97371.28;;;30.34;27.67
40285;BME280;25997;50.214;19.354;2023-05-23T10:37:54;97361.94;;;30.11;25.19
40285;BME280;25997;50.214;19.354;2023-05-23T10:41:05;97363.25;;;29.90;26.40
40285;BME280;25997;50.214;19.354;2023-05-23T10:44:14;97363.56;;;30.14;26.66
40285;BME280;25997;50.214;19.354;2023-05-23T10:47:27;97368.56;;;30.34;24.26
40285;BME280;25997;50.214;19.354;2023-05-23T10:50:31;97363.34;;;30.86;26.25
40285;BME280;25997;50.214;19.354;2023-05-23T10:53:35;97363.19;;;31.15;26.26
40285;BME280;25997;50.214;19.354;2023-05-23T10:56:38;97358.16;;;31.09;25.66
40285;BME280;25997;50.214;19.354;2023-05-23T10:59:41;97348.88;;;30.99;26.12
40285;BME280;25997;50.214;19.354;2023-05-23T11:02:52;97340.34;;;31.45;23.85
40285;BME280;25997;50.214;19.354;2023-05-23T11:05:56;97342.88;;;31.85;26.00
40285;BME280;25997;50.214;19.354;2023-05-23T11:09:03;97349.41;;;32.21;24.75
40285;BME280;25997;50.214;19.354;2023-05-23T11:12:06;97337.66;;;32.45;24.79
40285;BME280;25997;50.214;19.354;2023-05-23T11:15:19;97334.28;;;32.78;22.00
40285;BME280;25997;50.214;19.354;2023-05-23T11:18:26;97340.25;;;32.59;24.29
40285;BME280;25997;50.214;19.354;2023-05-23T11:21:29;97334.72;;;32.48;25.58
40285;BME280;25997;50.214;19.354;2023-05-23T11:24:48;97325.13;;;32.79;23.77
40285;BME280;25997;50.214;19.354;2023-05-23T11:27:52;97323.63;;;32.75;25.18
40285;BME280;25997;50.214;19.354;2023-05-23T11:30:56;97320.31;;;32.95;24.32
40285;BME280;25997;50.214;19.354;2023-05-23T11:33:59;97312.72;;;32.88;24.09
40285;BME280;25997;50.214;19.354;2023-05-23T11:37:03;97312.38;;;32.92;24.63
40285;BME280;25997;50.214;19.354;2023-05-23T11:40:25;97305.44;;;33.47;22.21
40285;BME280;25997;50.214;19.354;2023-05-23T11:43:28;97305.50;;;33.69;23.49
40285;BME280;25997;50.214;19.354;2023-05-23T11:46:30;97310.63;;;33.84;23.31
40285;BME280;25997;50.214;19.354;2023-05-23T11:49:36;97316.59;;;34.34;23.23
40285;BME280;25997;50.214;19.354;2023-05-23T11:52:39;97315.06;;;34.52;22.72
40285;BME280;25997;50.214;19.354;2023-05-23T11:55:47;97302.34;;;35.06;21.68
40285;BME280;25997;50.214;19.354;2023-05-23T11:58:50;97304.31;;;34.50;22.03
40285;BME280;25997;50.214;19.354;2023-05-23T12:01:53;97304.91;;;34.54;22.18
40285;BME280;25997;50.214;19.354;2023-05-23T12:05:16;97295.41;;;34.37;22.76
40285;BME280;25997;50.214;19.354;2023-05-23T12:08:37;97294.66;;;35.00;22.16
40285;BME280;25997;50.214;19.354;2023-05-23T12:11:58;97291.19;;;34.87;21.38
40285;BME280;25997;50.214;19.354;2023-05-23T12:15:24;97300.94;;;34.58;22.03
40285;BME280;25997;50.214;19.354;2023-05-23T12:18:45;97292.31;;;34.20;22.15
40285;BME280;25997;50.214;19.354;2023-05-23T12:22:08;97297.59;;;33.77;22.35
40285;BME280;25997;50.214;19.354;2023-05-23T12:25:11;97295.47;;;33.00;22.82
40285;BME280;25997;50.214;19.354;2023-05-23T12:28:13;97291.97;;;32.38;23.38
40285;BME280;25997;50.214;19.354;2023-05-23T12:31:17;97278.91;;;31.81;23.67
40285;BME280;25997;50.214;19.354;2023-05-23T12:34:20;97270.06;;;31.27;24.00
40285;BME280;25997;50.214;19.354;2023-05-23T12:37:24;97269.63;;;30.82;24.50
40285;BME280;25997;50.214;19.354;2023-05-23T12:40:27;97273.41;;;30.79;24.14
40285;BME280;25997;50.214;19.354;2023-05-23T12:43:30;97273.09;;;31.10;24.11
40285;BME280;25997;50.214;19.354;2023-05-23T12:46:51;97280.28;;;31.36;23.60
40285;BME280;25997;50.214;19.354;2023-05-23T12:49:54;97279.81;;;31.17;23.81
40285;BME280;25997;50.214;19.354;2023-05-23T12:52:58;97277.44;;;30.86;24.07
40285;BME280;25997;50.214;19.354;2023-05-23T12:56:01;97280.59;;;30.93;23.62
40285;BME280;25997;50.214;19.354;2023-05-23T12:59:03;97278.88;;;30.65;23.78
40285;BME280;25997;50.214;19.354;2023-05-23T13:02:06;97270.06;;;30.21;23.67
40285;BME280;25997;50.214;19.354;2023-05-23T13:05:08;97277.75;;;29.72;23.83
40285;BME280;25997;50.214;19.354;2023-05-23T13:08:30;97279.84;;;29.09;24.16
40285;BME280;25997;50.214;19.354;2023-05-23T13:11:33;97288.22;;;28.28;25.09
40285;BME280;25997;50.214;19.354;2023-05-23T13:14:35;97288.03;;;26.28;27.31
40285;BME280;25997;50.214;19.354;2023-05-23T13:17:38;97299.91;;;24.45;29.63
40285;BME280;25997;50.214;19.354;2023-05-23T13:20:40;97309.78;;;23.53;31.02
40285;BME280;25997;50.214;19.354;2023-05-23T13:23:44;97312.34;;;22.28;33.28
40285;BME280;25997;50.214;19.354;2023-05-23T13:26:47;97316.69;;;21.12;37.52
40285;BME280;25997;50.214;19.354;2023-05-23T13:29:49;97320.06;;;20.15;39.14
40285;BME280;25997;50.214;19.354;2023-05-23T13:32:52;97325.81;;;19.55;41.96
40285;BME280;25997;50.214;19.354;2023-05-23T13:35:55;97325.81;;;19.09;41.22
40285;BME280;25997;50.214;19.354;2023-05-23T13:38:58;97328.56;;;19.05;41.49
40285;BME280;25997;50.214;19.354;2023-05-23T13:42:01;97332.84;;;19.15;40.04
40285;BME280;25997;50.214;19.354;2023-05-23T13:45:04;97331.41;;;19.43;39.99
40285;BME280;25997;50.214;19.354;2023-05-23T13:48:07;97333.72;;;19.60;39.80
40285;BME280;25997;50.214;19.354;2023-05-23T13:51:09;97334.88;;;19.88;39.66
40285;BME280;25997;50.214;19.354;2023-05-23T13:54:32;97332.97;;;20.33;39.34
40285;BME280;25997;50.214;19.354;2023-05-23T13:57:53;97335.63;;;20.68;38.79
40285;BME280;25997;50.214;19.354;2023-05-23T14:01:14;97330.84;;;21.14;38.27
40285;BME280;25997;50.214;19.354;2023-05-23T14:04:17;97344.97;;;21.52;38.18
40285;BME280;25997;50.214;19.354;2023-05-23T14:07:20;97339.13;;;21.68;37.80
40285;BME280;25997;50.214;19.354;2023-05-23T14:10:24;97348.34;;;21.87;37.78
40285;BME280;25997;50.214;19.354;2023-05-23T14:13:27;97351.13;;;21.84;37.65
40285;BME280;25997;50.214;19.354;2023-05-23T14:16:29;97360.06;;;21.83;38.16
40285;BME280;25997;50.214;19.354;2023-05-23T14:19:32;97364.09;;;21.67;37.89
40285;BME280;25997;50.214;19.354;2023-05-23T14:22:34;97370.38;;;21.35;38.84
40285;BME280;25997;50.214;19.354;2023-05-23T14:25:38;97360.69;;;20.98;39.45
40285;BME280;25997;50.214;19.354;2023-05-23T14:28:40;97357.84;;;20.70;40.15
40285;BME280;25997;50.214;19.354;2023-05-23T14:31:43;97360.88;;;20.53;41.28
40285;BME280;25997;50.214;19.354;2023-05-23T14:34:45;97349.22;;;20.22;42.02
40285;BME280;25997;50.214;19.354;2023-05-23T14:37:48;97343.13;;;20.16;42.62
40285;BME280;25997;50.214;19.354;2023-05-23T14:40:52;97337.78;;;20.17;43.27
40285;BME280;25997;50.214;19.354;2023-05-23T14:43:54;97334.41;;;20.09;43.44
40285;BME280;25997;50.214;19.354;2023-05-23T14:46:56;97331.00;;;20.01;43.28
40285;BME280;25997;50.214;19.354;2023-05-23T14:49:59;97333.66;;;20.04;43.34
40285;BME280;25997;50.214;19.354;2023-05-23T14:53:01;97330.00;;;20.08;43.63
40285;BME280;25997;50.214;19.354;2023-05-23T14:56:05;97328.03;;;20.16;43.55
40285;BME280;25997;50.214;19.354;2023-05-23T14:59:26;97325.81;;;20.35;43.11
40285;BME280;25997;50.214;19.354;2023-05-23T15:02:29;97333.25;;;20.56;42.86
40285;BME280;25997;50.214;19.354;2023-05-23T15:05:32;97337.63;;;20.60;42.35
40285;BME280;25997;50.214;19.354;2023-05-23T15:08:34;97332.13;;;20.66;42.62
40285;BME280;25997;50.214;19.354;2023-05-23T15:11:38;97333.53;;;20.81;42.61
40285;BME280;25997;50.214;19.354;2023-05-23T15:14:42;97323.34;;;20.96;42.49
40285;BME280;25997;50.214;19.354;2023-05-23T15:17:44;97327.50;;;21.40;42.26
40285;BME280;25997;50.214;19.354;2023-05-23T15:20:47;97329.88;;;21.80;41.45
40285;BME280;25997;50.214;19.354;2023-05-23T15:23:49;97328.28;;;22.03;41.42
40285;BME280;25997;50.214;19.354;2023-05-23T15:26:53;97322.59;;;22.42;40.69
40285;BME280;25997;50.214;19.354;2023-05-23T15:29:55;97320.63;;;22.47;40.34
40285;BME280;25997;50.214;19.354;2023-05-23T15:32:58;97319.56;;;22.52;39.54
40285;BME280;25997;50.214;19.354;2023-05-23T15:36:19;97320.81;;;22.42;38.81
40285;BME280;25997;50.214;19.354;2023-05-23T15:39:21;97318.28;;;22.38;39.40
40285;BME280;25997;50.214;19.354;2023-05-23T15:42:25;97315.78;;;22.32;40.30
40285;BME280;25997;50.214;19.354;2023-05-23T15:45:27;97316.13;;;22.21;40.29
40285;BME280;25997;50.214;19.354;2023-05-23T15:48:30;97313.34;;;21.96;40.58
40285;BME280;25997;50.214;19.354;2023-05-23T15:51:32;97309.22;;;21.85;40.84
40285;BME280;25997;50.214;19.354;2023-05-23T15:54:36;97311.44;;;21.71;40.45
40285;BME280;25997;50.214;19.354;2023-05-23T15:57:40;97307.34;;;21.59;40.61
40285;BME280;25997;50.214;19.354;2023-05-23T16:00:42;97305.19;;;21.41;41.14
40285;BME280;25997;50.214;19.354;2023-05-23T16:03:45;97303.53;;;21.37;41.72
40285;BME280;25997;50.214;19.354;2023-05-23T16:06:47;97302.47;;;21.42;41.98
40285;BME280;25997;50.214;19.354;2023-05-23T16:09:50;97287.13;;;21.49;41.93
40285;BME280;25997;50.214;19.354;2023-05-23T16:13:12;97288.84;;;21.52;42.08
40285;BME280;25997;50.214;19.354;2023-05-23T16:16:33;97294.88;;;21.58;42.01
40285;BME280;25997;50.214;19.354;2023-05-23T16:19:54;97301.31;;;21.82;41.72
40285;BME280;25997;50.214;19.354;2023-05-23T16:23:15;97307.09;;;21.97;41.31
40285;BME280;25997;50.214;19.354;2023-05-23T16:26:36;97313.16;;;22.02;40.87
40285;BME280;25997;50.214;19.354;2023-05-23T16:29:59;97304.47;;;21.94;41.04
40285;BME280;25997;50.214;19.354;2023-05-23T16:33:20;97306.66;;;21.82;41.67